Time;durP1;ratioP1;P1;durP2;ratioP2;P2;SDS_P1;SDS_P2;PMS_P1;PMS_P2;Temp;Humidity;BMP_temperature;BMP_pressure;BME280_temperature;BME280_humidity;BME280_pressure;Samples;Min_cycle;Max_cycle;Signal;HPM_P1;HPM_P2
2023/04/30 00:01:44;;;;;;;8.17;2.03;;;10.00;99.90;;;;;;5043463;28;20215;-73
2023/04/30 00:04:10;;;;;;;5.30;1.80;;;10.00;99.90;;;;;;5047333;28;20234;-72
2023/04/30 00:06:35;;;;;;;8.50;1.50;;;10.00;99.90;;;;;;5046908;28;20175;-74
2023/04/30 00:09:01;;;;;;;5.90;2.07;;;10.00;99.90;;;;;;5046843;28;20370;-74
2023/04/30 00:11:26;;;;;;;4.47;1.50;;;9.90;99.90;;;;;;5029098;28;20224;-73
2023/04/30 00:13:52;;;;;;;6.83;1.67;;;9.90;99.90;;;;;;5041738;28;20204;-71
2023/04/30 00:16:18;;;;;;;4.27;2.03;;;9.90;99.90;;;;;;5049525;28;20203;-72
2023/04/30 00:18:44;;;;;;;4.23;1.67;;;9.80;99.90;;;;;;5031641;28;20186;-72
2023/04/30 00:21:10;;;;;;;9.80;1.87;;;9.80;99.90;;;;;;5027306;28;20624;-75
2023/04/30 00:23:35;;;;;;;6.03;2.03;;;9.80;99.90;;;;;;5030557;28;20211;-72
2023/04/30 00:26:01;;;;;;;6.47;1.70;;;9.80;99.90;;;;;;5043759;28;20207;-73
2023/04/30 00:28:27;;;;;;;6.07;2.07;;;9.80;99.90;;;;;;5045539;28;20206;-74
2023/04/30 00:30:52;;;;;;;3.10;1.53;;;9.80;99.90;;;;;;5042712;28;20638;-74
2023/04/30 00:33:18;;;;;;;7.03;1.90;;;9.80;99.90;;;;;;5046353;28;20251;-72
2023/04/30 00:35:44;;;;;;;7.93;2.30;;;9.70;99.90;;;;;;5049442;28;20208;-73
2023/04/30 00:38:09;;;;;;;5.90;1.67;;;9.60;99.90;;;;;;5030051;28;20626;-74
2023/04/30 00:40:36;;;;;;;3.70;1.93;;;9.60;99.90;;;;;;5047191;28;20223;-74
2023/04/30 00:43:02;;;;;;;5.03;2.00;;;9.70;99.90;;;;;;5049205;28;20266;-74
2023/04/30 00:45:27;;;;;;;5.03;2.73;;;9.60;99.90;;;;;;5050022;28;20171;-74
2023/04/30 00:47:53;;;;;;;4.73;1.80;;;9.50;99.90;;;;;;5080388;22;20232;-80
2023/04/30 00:50:20;;;;;;;4.53;2.30;;;9.40;99.90;;;;;;5074171;28;20241;-80
2023/04/30 00:52:45;;;;;;;8.27;2.67;;;9.40;99.90;;;;;;5080819;28;20248;-82
2023/04/30 00:55:12;;;;;;;8.23;2.70;;;9.40;99.90;;;;;;5081632;28;20281;-81
2023/04/30 00:57:42;;;;;;;7.03;2.50;;;9.40;99.90;;;;;;5073652;28;20721;-82
2023/04/30 01:00:10;;;;;;;5.93;2.00;;;9.30;99.90;;;;;;5065082;28;20211;-81
2023/04/30 01:02:36;;;;;;;7.27;2.13;;;9.30;99.90;;;;;;5048935;28;20207;-82
2023/04/30 01:05:03;;;;;;;7.80;2.27;;;9.30;99.90;;;;;;5067944;28;20199;-80
2023/04/30 01:07:30;;;;;;;4.60;2.50;;;9.20;99.90;;;;;;5067586;28;20211;-82
2023/04/30 01:09:56;;;;;;;5.10;2.57;;;9.20;99.90;;;;;;5070584;28;20179;-80
2023/04/30 01:12:46;;;;;;;6.33;2.37;;;9.10;99.90;;;;;;5070694;28;20175;-82
2023/04/30 01:15:21;;;;;;;6.10;2.27;;;9.20;99.90;;;;;;5055524;28;20220;-81
2023/04/30 01:17:56;;;;;;;7.20;2.67;;;9.10;99.90;;;;;;5069937;28;20276;-81
2023/04/30 01:20:22;;;;;;;8.43;2.70;;;9.10;99.90;;;;;;5060614;28;20235;-82
2023/04/30 01:23:13;;;;;;;4.33;2.40;;;9.10;99.90;;;;;;5076375;28;20269;-81
2023/04/30 01:25:38;;;;;;;6.80;2.63;;;9.00;99.90;;;;;;5077812;28;20733;-82
2023/04/30 01:28:21;;;;;;;7.83;2.30;;;9.00;99.90;;;;;;5059266;28;20243;-82
2023/04/30 01:30:47;;;;;;;11.77;3.13;;;9.00;99.90;;;;;;5058410;28;20194;-82
2023/04/30 01:33:13;;;;;;;7.10;2.50;;;8.90;99.90;;;;;;5081480;28;20175;-82
2023/04/30 01:36:15;;;;;;;8.57;3.50;;;8.90;99.90;;;;;;5065492;28;20234;-82
2023/04/30 01:38:59;;;;;;;11.20;3.33;;;8.90;99.90;;;;;;5044705;28;20712;-81
2023/04/30 01:41:43;;;;;;;5.17;2.27;;;8.90;99.90;;;;;;5076559;28;20902;-80
2023/04/30 01:44:28;;;;;;;10.53;3.20;;;9.00;99.90;;;;;;5074986;28;20743;-81
2023/04/30 01:47:17;;;;;;;12.00;3.00;;;8.90;99.90;;;;;;5059277;28;20215;-81
2023/04/30 01:49:49;;;;;;;9.07;2.43;;;8.90;99.90;;;;;;5073678;28;20218;-81
2023/04/30 01:52:25;;;;;;;7.83;3.20;;;8.80;99.90;;;;;;5072560;28;20226;-81
2023/04/30 01:55:05;;;;;;;9.73;2.57;;;8.90;99.90;;;;;;5072633;28;20190;-81
2023/04/30 01:57:39;;;;;;;6.70;2.40;;;8.90;99.90;;;;;;5073193;28;20205;-78
2023/04/30 02:00:09;;;;;;;8.83;2.87;;;8.90;99.90;;;;;;5066235;28;20214;-80
2023/04/30 02:02:35;;;;;;;5.57;2.10;;;8.80;99.90;;;;;;5071654;28;20206;-79
2023/04/30 02:05:01;;;;;;;6.73;2.40;;;8.90;99.90;;;;;;5052225;28;20655;-80
2023/04/30 02:07:39;;;;;;;10.43;2.90;;;8.80;99.90;;;;;;5056764;28;20214;-80
2023/04/30 02:10:06;;;;;;;7.50;2.37;;;8.80;99.90;;;;;;5073488;28;20289;-80
2023/04/30 02:12:32;;;;;;;6.70;2.33;;;8.80;99.90;;;;;;5054542;28;20228;-81
2023/04/30 02:14:58;;;;;;;6.60;2.00;;;8.80;99.90;;;;;;5071980;28;20211;-79
2023/04/30 02:17:23;;;;;;;8.07;1.83;;;8.80;99.90;;;;;;5071129;28;20211;-79
2023/04/30 02:19:49;;;;;;;9.40;2.63;;;8.80;99.90;;;;;;5057645;28;20256;-81
2023/04/30 02:22:15;;;;;;;4.70;2.63;;;8.80;99.90;;;;;;5052635;28;20223;-79
2023/04/30 02:24:40;;;;;;;6.90;2.53;;;8.80;99.90;;;;;;5068338;28;20543;-78
2023/04/30 02:27:06;;;;;;;7.90;2.30;;;8.70;99.90;;;;;;5050574;28;20595;-78
2023/04/30 02:29:32;;;;;;;9.33;2.40;;;8.80;99.90;;;;;;5047898;28;20214;-76
2023/04/30 02:31:58;;;;;;;7.37;2.50;;;8.70;99.90;;;;;;5051974;28;20207;-78
2023/04/30 02:34:23;;;;;;;11.43;2.97;;;8.70;99.90;;;;;;5053166;28;20298;-77
2023/04/30 02:36:49;;;;;;;7.97;2.57;;;8.70;99.90;;;;;;5063411;28;20277;-79
2023/04/30 02:39:15;;;;;;;3.27;2.13;;;8.60;99.90;;;;;;5053962;28;20305;-79
2023/04/30 02:41:40;;;;;;;5.47;1.90;;;8.60;99.90;;;;;;5048682;28;20214;-78
2023/04/30 02:44:06;;;;;;;7.63;2.73;;;8.60;99.90;;;;;;5052782;28;20213;-77
2023/04/30 02:46:32;;;;;;;6.53;2.30;;;8.50;99.90;;;;;;5081900;28;20198;-77
2023/04/30 02:48:57;;;;;;;7.27;2.77;;;8.50;99.90;;;;;;5077349;28;20610;-76
2023/04/30 02:51:23;;;;;;;8.00;2.60;;;8.50;99.90;;;;;;5052827;28;20262;-78
2023/04/30 02:53:48;;;;;;;7.13;2.37;;;8.50;99.90;;;;;;5072411;28;20603;-78
2023/04/30 02:56:14;;;;;;;5.77;2.80;;;8.50;99.90;;;;;;5054517;28;20215;-77
2023/04/30 02:58:40;;;;;;;6.67;2.17;;;8.40;99.90;;;;;;5067537;28;20226;-78
2023/04/30 03:01:06;;;;;;;6.13;3.03;;;8.30;99.90;;;;;;5068517;28;20230;-78
2023/04/30 03:03:32;;;;;;;7.67;3.33;;;8.20;99.90;;;;;;5065294;28;20258;-76
2023/04/30 03:05:58;;;;;;;5.73;2.70;;;8.10;99.90;;;;;;5047201;28;20737;-78
2023/04/30 03:08:24;;;;;;;7.60;3.00;;;8.10;99.90;;;;;;5052744;28;20219;-77
2023/04/30 03:10:51;;;;;;;7.97;2.77;;;8.20;99.90;;;;;;5066622;28;20207;-78
2023/04/30 03:13:16;;;;;;;6.67;2.80;;;8.10;99.90;;;;;;5065268;28;20212;-77
2023/04/30 03:15:42;;;;;;;3.53;2.60;;;8.20;99.90;;;;;;5046446;28;20175;-78
2023/04/30 03:18:09;;;;;;;6.77;3.00;;;8.10;99.90;;;;;;5064529;28;20245;-78
2023/04/30 03:20:35;;;;;;;4.30;2.67;;;8.20;99.90;;;;;;5053306;28;20222;-78
2023/04/30 03:23:01;;;;;;;7.57;2.33;;;8.00;99.90;;;;;;5052367;28;20210;-78
2023/04/30 03:25:26;;;;;;;7.60;2.73;;;7.90;99.90;;;;;;5062427;28;20593;-78
2023/04/30 03:27:52;;;;;;;5.70;2.97;;;8.00;99.90;;;;;;5055751;28;20260;-78
2023/04/30 03:30:18;;;;;;;6.93;2.77;;;7.90;99.90;;;;;;5054619;28;20188;-78
2023/04/30 03:32:43;;;;;;;5.33;2.47;;;7.80;99.90;;;;;;5056650;28;20206;-80
2023/04/30 03:35:09;;;;;;;7.27;3.00;;;7.90;99.90;;;;;;5073363;28;20213;-79
2023/04/30 03:37:35;;;;;;;7.93;3.20;;;7.90;99.90;;;;;;5081597;28;20620;-81
2023/04/30 03:40:00;;;;;;;9.57;2.90;;;7.90;99.90;;;;;;5074534;28;20219;-81
2023/04/30 03:42:26;;;;;;;7.13;2.80;;;7.90;99.90;;;;;;5075878;28;20206;-81
2023/04/30 03:44:52;;;;;;;4.40;2.87;;;7.90;99.90;;;;;;5071271;28;20191;-81
2023/04/30 03:47:17;;;;;;;5.87;3.03;;;7.90;99.90;;;;;;5086922;28;20219;-85
2023/04/30 03:49:43;;;;;;;11.80;3.03;;;7.90;99.90;;;;;;5086830;28;20211;-83
2023/04/30 03:52:10;;;;;;;5.80;2.53;;;7.90;99.90;;;;;;5072985;28;20183;-81
2023/04/30 03:54:35;;;;;;;7.50;2.83;;;7.90;99.90;;;;;;5080956;28;20175;-81
2023/04/30 03:57:03;;;;;;;5.47;3.10;;;7.90;99.90;;;;;;5066582;28;20668;-79
2023/04/30 03:59:30;;;;;;;12.27;6.20;;;8.00;99.90;;;;;;5052557;28;20587;-80
2023/04/30 04:01:56;;;;;;;6.10;3.27;;;8.00;99.90;;;;;;5062407;28;20898;-79
2023/04/30 04:04:21;;;;;;;11.37;4.40;;;8.00;99.90;;;;;;5043998;28;20235;-80
2023/04/30 04:06:47;;;;;;;6.33;2.90;;;8.00;99.90;;;;;;5071669;28;20245;-79
2023/04/30 04:09:13;;;;;;;17.00;7.87;;;8.10;99.90;;;;;;5059992;28;20180;-79
2023/04/30 04:11:38;;;;;;;7.60;3.53;;;8.20;99.90;;;;;;5075032;28;20263;-79
2023/04/30 04:14:04;;;;;;;7.17;3.40;;;8.10;99.90;;;;;;5051999;28;20210;-79
2023/04/30 04:16:29;;;;;;;8.63;3.23;;;8.00;99.90;;;;;;5050890;28;20203;-80
2023/04/30 04:18:55;;;;;;;9.53;3.80;;;8.20;99.90;;;;;;5051732;28;20179;-79
2023/04/30 04:21:21;;;;;;;7.93;3.17;;;8.20;99.90;;;;;;5056610;28;20620;-79
2023/04/30 04:23:46;;;;;;;12.93;4.23;;;8.30;99.90;;;;;;5068172;28;20695;-79
2023/04/30 04:26:12;;;;;;;7.27;3.20;;;8.40;99.90;;;;;;5051548;28;20226;-79
2023/04/30 04:28:37;;;;;;;4.63;2.60;;;8.50;99.90;;;;;;5068349;28;20194;-79
2023/04/30 04:31:03;;;;;;;7.30;2.80;;;8.50;99.90;;;;;;5050749;28;20223;-79
2023/04/30 04:33:29;;;;;;;4.20;2.43;;;8.50;99.90;;;;;;5069893;28;20249;-79
2023/04/30 04:35:56;;;;;;;6.10;2.50;;;9.20;99.90;;;;;;5066423;28;20217;-80
2023/04/30 04:38:22;;;;;;;5.00;2.10;;;10.10;99.90;;;;;;5055209;28;20617;-81
2023/04/30 04:40:52;;;;;;;7.47;2.73;;;11.00;99.90;;;;;;5048984;28;20211;-78
2023/04/30 04:43:19;;;;;;;7.00;2.45;;;11.80;99.90;;;;;;5054795;28;20256;-80
2023/04/30 04:45:44;;;;;;;5.40;2.35;;;12.40;99.90;;;;;;5068938;28;20800;-80
2023/04/30 04:48:10;;;;;;;4.72;2.33;;;13.00;99.90;;;;;;5056076;28;20216;-80
2023/04/30 04:50:36;;;;;;;5.10;2.35;;;13.20;99.90;;;;;;5069915;28;20206;-80
2023/04/30 04:53:01;;;;;;;7.70;2.35;;;13.70;99.90;;;;;;5073062;28;20590;-80
2023/04/30 04:55:27;;;;;;;8.80;2.00;;;13.90;99.90;;;;;;5078055;28;20226;-81
2023/04/30 04:57:53;;;;;;;5.60;2.50;;;13.80;99.90;;;;;;5073734;28;20233;-80
2023/04/30 05:00:20;;;;;;;4.50;2.30;;;14.50;99.90;;;;;;5076082;28;20612;-81
2023/04/30 05:02:46;;;;;;;6.00;2.47;;;15.00;99.90;;;;;;5074652;28;20340;-82
2023/04/30 05:05:12;;;;;;;6.20;2.20;;;15.10;99.90;;;;;;5069963;28;20226;-80
2023/04/30 05:07:37;;;;;;;6.20;2.70;;;15.20;99.90;;;;;;5075886;28;20712;-81
2023/04/30 05:10:03;;;;;;;8.70;2.83;;;15.60;99.90;;;;;;5061155;28;20289;-81
2023/04/30 05:12:29;;;;;;;8.45;2.50;;;15.50;99.90;;;;;;5069794;28;20187;-79
2023/04/30 05:14:55;;;;;;;7.50;2.90;;;15.80;99.90;;;;;;5072860;28;20227;-84
2023/04/30 05:17:20;;;;;;;9.15;2.70;;;16.50;99.90;;;;;;5075990;28;20219;-78
2023/04/30 05:19:49;;;;;;;11.70;2.95;;;16.30;99.90;;;;;;5055123;28;20218;-79
2023/04/30 05:22:15;;;;;;;4.53;2.42;;;16.30;99.90;;;;;;5070043;28;20677;-81
2023/04/30 05:24:41;;;;;;;4.85;2.15;;;16.60;99.90;;;;;;5073318;28;20744;-81
2023/04/30 05:27:07;;;;;;;5.13;2.28;;;17.10;99.90;;;;;;5048209;28;20261;-79
2023/04/30 05:29:32;;;;;;;5.35;2.25;;;17.30;99.90;;;;;;5057712;28;20208;-79
2023/04/30 05:31:58;;;;;;;6.53;2.42;;;17.60;99.90;;;;;;5059235;28;20256;-80
2023/04/30 05:34:23;;;;;;;4.75;2.25;;;18.00;99.90;;;;;;5063936;28;20238;-80
2023/04/30 05:36:49;;;;;;;7.05;2.88;;;17.60;99.90;;;;;;5093563;28;20687;-78
2023/04/30 05:39:15;;;;;;;6.05;2.20;;;18.60;99.90;;;;;;5088106;28;20175;-79
2023/04/30 05:41:40;;;;;;;7.15;2.60;;;18.70;99.90;;;;;;5073376;28;20231;-79
2023/04/30 05:44:06;;;;;;;8.90;2.35;;;19.20;99.90;;;;;;5075120;28;20206;-81
2023/04/30 05:46:31;;;;;;;5.75;2.63;;;18.40;99.90;;;;;;5063771;28;20257;-78
2023/04/30 05:48:57;;;;;;;6.55;2.58;;;18.70;99.90;;;;;;5073805;28;20677;-80
2023/04/30 05:51:23;;;;;;;7.13;2.95;;;17.90;99.90;;;;;;5060320;28;20240;-81
2023/04/30 05:53:48;;;;;;;5.93;2.53;;;18.30;99.90;;;;;;5075836;28;20715;-80
2023/04/30 05:56:14;;;;;;;5.50;2.90;;;18.30;99.90;;;;;;5055176;28;20231;-80
2023/04/30 05:58:40;;;;;;;6.22;2.67;;;18.40;99.90;;;;;;5056681;28;20709;-79
2023/04/30 06:01:05;;;;;;;5.63;2.67;;;18.70;99.90;;;;;;5058280;28;20275;-79
2023/04/30 06:03:31;;;;;;;7.90;3.50;;;19.30;99.90;;;;;;5071309;28;20175;-79
2023/04/30 06:05:57;;;;;;;7.18;2.85;;;20.50;99.90;;;;;;5070090;28;20588;-79
2023/04/30 06:08:22;;;;;;;5.65;2.40;;;19.60;99.90;;;;;;5069660;28;20215;-77
2023/04/30 06:10:49;;;;;;;5.85;2.33;;;19.50;99.90;;;;;;5076990;28;20678;-79
2023/04/30 06:13:15;;;;;;;4.45;2.30;;;19.10;99.90;;;;;;5082059;27;20228;-80
2023/04/30 06:15:41;;;;;;;5.95;2.72;;;19.30;99.90;;;;;;5074140;28;20557;-80
2023/04/30 06:18:06;;;;;;;7.43;3.15;;;19.70;99.90;;;;;;5076546;28;20210;-80
2023/04/30 06:20:32;;;;;;;6.30;2.55;;;19.80;99.90;;;;;;5076260;28;20203;-78
2023/04/30 06:22:58;;;;;;;6.18;3.03;;;20.00;99.90;;;;;;5061485;28;20235;-80
2023/04/30 06:25:25;;;;;;;6.70;3.10;;;19.90;99.90;;;;;;5060204;28;20244;-80
2023/04/30 06:27:52;;;;;;;7.47;2.72;;;19.70;99.90;;;;;;5064791;28;20716;-80
2023/04/30 06:30:18;;;;;;;6.97;3.85;;;20.50;99.90;;;;;;5061481;28;20186;-79
2023/04/30 06:32:44;;;;;;;7.43;2.42;;;21.10;99.90;;;;;;5065466;28;20214;-80
2023/04/30 06:35:10;;;;;;;6.85;2.53;;;21.00;99.30;;;;;;5060937;28;20290;-79
2023/04/30 06:37:36;;;;;;;6.80;3.10;;;20.90;98.80;;;;;;5060227;28;20211;-78
2023/04/30 06:40:05;;;;;;;8.25;3.67;;;20.90;98.50;;;;;;5069853;28;20210;-79
2023/04/30 06:42:34;;;;;;;7.53;3.45;;;21.20;97.90;;;;;;5063172;28;20218;-78
2023/04/30 06:45:05;;;;;;;7.20;2.80;;;20.50;98.50;;;;;;5084438;28;20207;-80
2023/04/30 06:47:33;;;;;;;6.78;2.88;;;20.80;97.80;;;;;;5064578;28;20226;-78
2023/04/30 06:49:59;;;;;;;8.30;3.67;;;21.50;97.10;;;;;;5084049;28;20218;-79
2023/04/30 06:52:25;;;;;;;7.53;3.03;;;22.00;96.90;;;;;;5057916;28;20213;-79
2023/04/30 06:54:51;;;;;;;5.63;3.38;;;22.00;95.30;;;;;;5063618;28;20249;-79
2023/04/30 06:57:16;;;;;;;7.03;3.50;;;22.90;93.80;;;;;;5077760;28;20199;-80
2023/04/30 06:59:43;;;;;;;8.02;3.80;;;22.00;93.50;;;;;;5070192;28;20579;-80
2023/04/30 07:02:08;;;;;;;5.95;3.33;;;22.40;92.80;;;;;;5049626;28;20713;-77
2023/04/30 07:04:34;;;;;;;6.32;2.80;;;22.00;92.80;;;;;;5098645;22;20238;-72
2023/04/30 07:07:01;;;;;;;7.85;3.13;;;22.20;92.50;;;;;;5082572;28;20182;-75
2023/04/30 07:09:27;;;;;;;8.13;2.95;;;21.60;92.40;;;;;;5079602;28;20600;-73
2023/04/30 07:11:53;;;;;;;8.18;3.55;;;22.30;92.70;;;;;;5086515;28;20568;-74
2023/04/30 07:14:20;;;;;;;7.30;2.72;;;21.50;91.80;;;;;;5076429;28;20219;-73
2023/04/30 07:16:45;;;;;;;4.47;2.92;;;22.30;92.20;;;;;;5081216;28;20592;-74
2023/04/30 07:19:11;;;;;;;6.93;3.00;;;22.40;91.30;;;;;;5076319;28;20221;-75
2023/04/30 07:21:37;;;;;;;6.82;2.90;;;21.50;91.60;;;;;;5077681;28;20210;-73
2023/04/30 07:24:02;;;;;;;8.30;2.60;;;21.50;92.40;;;;;;5079147;28;20225;-73
2023/04/30 07:26:28;;;;;;;6.93;2.78;;;19.40;94.80;;;;;;5063356;28;20259;-74
2023/04/30 07:28:54;;;;;;;6.38;3.00;;;20.70;94.20;;;;;;5080089;28;20202;-74
2023/04/30 07:31:19;;;;;;;7.55;2.75;;;20.80;93.30;;;;;;5079430;28;20351;-75
2023/04/30 07:33:46;;;;;;;8.00;3.45;;;18.00;95.50;;;;;;5076809;28;20191;-74
2023/04/30 07:36:11;;;;;;;7.68;3.40;;;18.60;97.30;;;;;;5078124;28;20166;-75
2023/04/30 07:38:37;;;;;;;8.38;3.30;;;20.10;94.80;;;;;;5055488;28;20563;-74
2023/04/30 07:41:03;;;;;;;7.25;3.15;;;20.60;94.70;;;;;;5078876;28;20289;-75
2023/04/30 07:43:29;;;;;;;13.80;3.17;;;21.60;92.90;;;;;;5074811;28;20211;-73
2023/04/30 07:45:55;;;;;;;7.47;2.75;;;21.70;91.90;;;;;;5071808;28;21048;-73
2023/04/30 07:48:21;;;;;;;5.88;2.88;;;20.60;91.90;;;;;;5078747;28;20213;-74
2023/04/30 07:50:47;;;;;;;8.13;3.10;;;21.30;92.00;;;;;;5072215;28;20317;-74
2023/04/30 07:53:13;;;;;;;6.00;2.80;;;22.00;91.30;;;;;;5057631;28;20225;-74
2023/04/30 07:55:39;;;;;;;6.30;2.55;;;22.00;91.10;;;;;;5075354;28;20215;-74
2023/04/30 07:58:05;;;;;;;7.30;2.65;;;23.20;90.40;;;;;;5076639;28;20304;-74
2023/04/30 08:00:30;;;;;;;7.32;2.67;;;24.50;89.80;;;;;;5062302;28;20232;-75
2023/04/30 08:02:57;;;;;;;8.55;3.20;;;24.70;86.90;;;;;;5060442;28;20218;-74
2023/04/30 08:05:23;;;;;;;5.90;2.72;;;24.90;85.40;;;;;;5078390;28;20408;-74
2023/04/30 08:07:49;;;;;;;5.28;2.67;;;25.20;85.00;;;;;;5078791;28;20214;-73
2023/04/30 08:10:14;;;;;;;5.32;3.00;;;25.20;83.60;;;;;;5051732;28;20272;-72
2023/04/30 08:12:40;;;;;;;8.75;2.97;;;25.80;84.50;;;;;;5073888;28;20175;-74
2023/04/30 08:15:06;;;;;;;7.07;3.42;;;23.20;86.60;;;;;;5072899;28;20245;-72
2023/04/30 08:17:32;;;;;;;8.25;3.80;;;23.90;87.40;;;;;;5068178;28;20239;-72
2023/04/30 08:19:59;;;;;;;7.00;2.90;;;22.20;86.60;;;;;;5062424;28;20225;-74
2023/04/30 08:22:25;;;;;;;8.23;2.83;;;20.90;88.90;;;;;;5066278;28;20587;-75
2023/04/30 08:24:51;;;;;;;10.02;3.10;;;20.50;89.80;;;;;;5074190;28;20201;-73
2023/04/30 08:27:16;;;;;;;13.45;7.03;;;20.70;90.20;;;;;;5077621;28;20225;-73
2023/04/30 08:29:42;;;;;;;5.68;2.78;;;20.00;91.00;;;;;;5072884;28;20218;-74
2023/04/30 08:32:08;;;;;;;7.45;2.67;;;19.40;88.30;;;;;;5079514;28;20214;-72
2023/04/30 08:34:34;;;;;;;3.78;2.28;;;18.50;89.50;;;;;;5075549;28;20336;-74
2023/04/30 08:37:00;;;;;;;8.23;3.08;;;17.10;91.00;;;;;;5078909;28;20343;-74
2023/04/30 08:39:26;;;;;;;5.47;2.83;;;17.60;91.70;;;;;;5057151;28;20184;-72
2023/04/30 08:41:55;;;;;;;6.25;2.53;;;17.80;91.80;;;;;;5061780;28;20744;-72
2023/04/30 08:44:25;;;;;;;4.63;2.25;;;17.30;92.20;;;;;;5067938;28;21012;-73
2023/04/30 08:46:55;;;;;;;5.82;2.75;;;17.80;92.20;;;;;;5070910;28;20214;-74
2023/04/30 08:49:22;;;;;;;5.32;2.22;;;18.00;90.60;;;;;;5072216;28;20202;-74
2023/04/30 08:51:48;;;;;;;5.15;2.33;;;17.40;89.20;;;;;;5071629;28;20714;-74
2023/04/30 08:54:14;;;;;;;7.25;2.30;;;16.90;91.40;;;;;;5071771;28;20195;-70
2023/04/30 08:56:40;;;;;;;8.93;4.15;;;16.60;91.30;;;;;;5054658;28;20207;-69
2023/04/30 08:59:06;;;;;;;7.43;2.72;;;15.90;91.70;;;;;;5078903;28;20209;-72
2023/04/30 09:01:33;;;;;;;6.15;2.40;;;16.30;91.90;;;;;;5071153;28;20585;-71
2023/04/30 09:04:01;;;;;;;5.47;2.05;;;16.80;91.60;;;;;;5054393;28;20696;-74
2023/04/30 09:06:27;;;;;;;5.88;2.15;;;15.80;91.80;;;;;;5069451;28;20190;-74
2023/04/30 09:08:53;;;;;;;6.38;2.33;;;15.60;93.20;;;;;;5072616;28;20282;-73
2023/04/30 09:11:22;;;;;;;5.90;2.45;;;16.40;92.80;;;;;;5070400;28;20206;-73
2023/04/30 09:13:53;;;;;;;6.15;2.05;;;17.00;91.80;;;;;;5059583;28;20222;-70
2023/04/30 09:16:20;;;;;;;5.32;2.45;;;17.20;91.60;;;;;;5074244;28;20199;-72
2023/04/30 09:18:46;;;;;;;7.22;2.55;;;16.60;92.60;;;;;;5075166;28;20179;-73
2023/04/30 09:21:12;;;;;;;4.72;2.33;;;16.70;92.90;;;;;;5077661;28;20570;-74
2023/04/30 09:23:57;;;;;;;4.53;2.40;;;16.10;93.20;;;;;;5077894;28;20237;-72
2023/04/30 09:26:42;;;;;;;5.22;2.05;;;16.00;92.50;;;;;;5071963;28;20229;-72
2023/04/30 09:29:09;;;;;;;6.28;2.20;;;16.40;93.00;;;;;;5054619;28;20260;-74
2023/04/30 09:31:35;;;;;;;5.97;2.10;;;16.20;92.90;;;;;;5051453;28;20567;-72
2023/04/30 09:34:02;;;;;;;4.63;2.15;;;15.70;91.50;;;;;;5049680;28;20305;-72
2023/04/30 09:36:28;;;;;;;3.60;2.03;;;15.60;92.70;;;;;;5072418;28;20740;-72
2023/04/30 09:38:55;;;;;;;3.97;2.17;;;16.00;92.10;;;;;;5069832;28;20203;-75
2023/04/30 09:41:29;;;;;;;6.90;1.60;;;16.30;90.40;;;;;;5045309;28;20216;-72
2023/04/30 09:43:56;;;;;;;3.85;1.75;;;16.30;90.60;;;;;;5068507;28;20242;-72
2023/04/30 09:46:32;;;;;;;5.53;1.83;;;16.60;90.20;;;;;;5073417;28;20217;-73
2023/04/30 09:49:01;;;;;;;4.57;1.83;;;16.50;90.00;;;;;;5071531;28;20640;-72
2023/04/30 09:51:27;;;;;;;2.70;1.60;;;16.60;89.00;;;;;;5078933;28;20274;-72
2023/04/30 09:53:54;;;;;;;4.68;1.80;;;16.20;87.90;;;;;;5076301;28;20277;-73
2023/04/30 09:56:25;;;;;;;4.63;2.08;;;16.50;89.40;;;;;;5071119;28;20875;-72
2023/04/30 09:58:55;;;;;;;5.00;1.65;;;16.70;89.00;;;;;;5074650;28;20214;-73
2023/04/30 10:01:25;;;;;;;5.82;1.73;;;16.80;88.50;;;;;;5064336;28;20735;-71
2023/04/30 10:03:51;;;;;;;5.38;2.10;;;16.50;88.50;;;;;;5078459;28;20218;-71
2023/04/30 10:06:19;;;;;;;4.60;2.22;;;16.00;90.10;;;;;;5075979;28;20171;-73
2023/04/30 10:08:52;;;;;;;5.13;1.80;;;15.70;89.60;;;;;;5075020;28;20592;-72
2023/04/30 10:11:20;;;;;;;7.75;1.80;;;16.20;90.00;;;;;;5051666;28;20216;-74
2023/04/30 10:14:12;;;;;;;5.38;2.35;;;15.70;90.40;;;;;;5072940;28;20230;-73
2023/04/30 10:16:53;;;;;;;4.72;2.33;;;15.90;91.00;;;;;;5073208;28;20207;-74
2023/04/30 10:19:24;;;;;;;5.47;2.13;;;15.80;90.90;;;;;;5068170;28;20206;-72
2023/04/30 10:21:51;;;;;;;5.13;2.17;;;15.30;91.30;;;;;;5078341;28;20293;-73
2023/04/30 10:24:18;;;;;;;6.55;2.60;;;15.70;92.60;;;;;;5068064;28;20549;-74
2023/04/30 10:26:47;;;;;;;6.45;3.53;;;15.90;91.90;;;;;;5074585;28;20211;-73
2023/04/30 10:29:14;;;;;;;5.97;2.55;;;16.00;92.30;;;;;;5053254;28;20252;-72
2023/04/30 10:31:48;;;;;;;4.65;2.55;;;15.90;91.00;;;;;;5073460;28;20207;-71
2023/04/30 10:34:31;;;;;;;8.20;2.55;;;16.00;91.80;;;;;;5077171;28;20221;-72
2023/04/30 10:37:03;;;;;;;3.80;2.28;;;16.00;91.90;;;;;;5058085;28;20199;-72
2023/04/30 10:39:30;;;;;;;3.35;2.03;;;15.70;92.50;;;;;;5078547;28;20186;-72
2023/04/30 10:42:06;;;;;;;3.55;2.13;;;15.30;91.80;;;;;;5077801;28;20264;-71
2023/04/30 10:44:33;;;;;;;4.13;2.00;;;15.00;93.30;;;;;;5076897;28;20238;-71
2023/04/30 10:47:03;;;;;;;4.07;2.15;;;15.20;92.80;;;;;;5078064;28;20315;-73
2023/04/30 10:49:29;;;;;;;6.25;2.45;;;15.10;92.80;;;;;;5069623;28;20283;-74
2023/04/30 10:51:59;;;;;;;7.63;2.80;;;15.60;93.50;;;;;;5062492;28;20677;-72
2023/04/30 10:54:33;;;;;;;5.40;2.50;;;16.00;92.70;;;;;;5077865;28;20280;-71
2023/04/30 10:57:13;;;;;;;4.82;3.20;;;16.10;92.90;;;;;;5077080;28;20211;-72
2023/04/30 10:59:45;;;;;;;4.30;2.47;;;16.40;92.90;;;;;;5076836;28;20209;-71
2023/04/30 11:02:14;;;;;;;8.10;3.35;;;16.40;93.50;;;;;;5080470;28;20329;-72
2023/04/30 11:05:05;;;;;;;4.55;2.58;;;16.40;92.90;;;;;;5071559;28;20249;-72
2023/04/30 11:07:30;;;;;;;7.60;3.97;;;16.30;92.60;;;;;;5049665;28;20206;-74
2023/04/30 11:09:57;;;;;;;9.15;4.25;;;16.40;94.90;;;;;;5071938;28;20266;-70
2023/04/30 11:12:28;;;;;;;13.77;4.20;;;16.00;99.90;;;;;;5065487;28;20443;-74
2023/04/30 11:15:06;;;;;;;10.80;2.85;;;16.20;99.90;;;;;;5052982;28;20518;-74
2023/04/30 11:17:32;;;;;;;8.40;4.15;;;16.10;99.90;;;;;;5072157;28;20227;-75
2023/04/30 11:20:01;;;;;;;9.20;2.80;;;16.50;99.90;;;;;;5054480;28;20210;-77
2023/04/30 11:22:34;;;;;;;6.60;2.90;;;16.50;99.90;;;;;;5052535;28;20234;-75
2023/04/30 11:25:04;;;;;;;4.30;2.50;;;16.60;99.90;;;;;;5057152;28;20235;-71
2023/04/30 11:27:31;;;;;;;12.60;5.88;;;16.20;98.50;;;;;;5079411;28;20166;-73
2023/04/30 11:29:58;;;;;;;5.93;3.33;;;16.40;99.10;;;;;;5073117;28;20202;-73
2023/04/30 11:32:30;;;;;;;4.30;2.30;;;16.30;98.00;;;;;;5055924;28;20235;-74
2023/04/30 11:34:57;;;;;;;6.75;2.20;;;16.70;98.60;;;;;;5050956;28;20207;-77
2023/04/30 11:37:34;;;;;;;7.40;2.78;;;16.80;97.60;;;;;;5067716;28;20697;-75
2023/04/30 11:40:01;;;;;;;6.32;2.40;;;16.80;97.40;;;;;;5051192;28;20182;-73
2023/04/30 11:42:29;;;;;;;6.07;2.65;;;16.60;97.30;;;;;;5053863;28;20199;-74
2023/04/30 11:45:01;;;;;;;8.48;2.55;;;16.50;97.00;;;;;;5073682;28;20265;-73
2023/04/30 11:47:27;;;;;;;3.65;2.30;;;16.20;96.30;;;;;;5072471;28;20261;-73
2023/04/30 11:49:55;;;;;;;6.93;2.88;;;16.50;96.50;;;;;;5069889;28;20207;-71
2023/04/30 11:52:24;;;;;;;4.18;2.30;;;16.80;96.00;;;;;;5051636;28;20218;-73
2023/04/30 11:54:53;;;;;;;5.82;2.65;;;16.70;95.70;;;;;;5071945;28;20254;-73
2023/04/30 11:57:19;;;;;;;4.88;2.42;;;16.70;95.90;;;;;;5077742;28;20237;-72
2023/04/30 11:59:45;;;;;;;6.82;2.10;;;16.60;94.90;;;;;;5072290;28;20202;-71
2023/04/30 12:02:17;;;;;;;4.97;2.35;;;16.40;94.50;;;;;;5073610;28;20218;-71
2023/04/30 12:04:43;;;;;;;7.15;2.70;;;16.40;95.30;;;;;;5075898;28;20218;-72
2023/04/30 12:07:08;;;;;;;7.30;3.22;;;16.60;95.60;;;;;;5074317;28;20258;-72
2023/04/30 12:09:53;;;;;;;9.20;2.97;;;16.60;95.90;;;;;;5073297;28;20685;-72
2023/04/30 12:12:31;;;;;;;7.72;2.65;;;16.70;96.10;;;;;;5064989;28;20574;-73
2023/04/30 12:14:57;;;;;;;7.30;2.60;;;16.70;96.20;;;;;;5078806;28;20703;-73
2023/04/30 12:17:33;;;;;;;6.10;2.42;;;16.70;96.40;;;;;;5051771;28;20208;-73
2023/04/30 12:19:59;;;;;;;3.60;2.00;;;16.10;96.40;;;;;;5062948;28;20230;-76
2023/04/30 12:22:25;;;;;;;5.22;2.38;;;16.00;97.40;;;;;;5066490;28;20256;-74
2023/04/30 12:24:51;;;;;;;6.20;2.63;;;16.10;96.00;;;;;;5069956;28;20704;-71
2023/04/30 12:27:17;;;;;;;5.03;2.42;;;16.20;95.20;;;;;;5056700;28;20175;-73
2023/04/30 12:29:47;;;;;;;2.90;2.03;;;16.10;95.30;;;;;;5059068;28;20296;-71
2023/04/30 12:32:17;;;;;;;4.72;2.30;;;16.20;95.10;;;;;;5058443;28;20206;-72
2023/04/30 12:34:43;;;;;;;5.38;2.05;;;16.30;95.10;;;;;;5071522;28;20623;-73
2023/04/30 12:37:09;;;;;;;6.80;2.33;;;16.40;94.50;;;;;;5074683;28;20218;-72
2023/04/30 12:39:35;;;;;;;5.60;2.63;;;16.30;93.70;;;;;;5075206;28;20658;-73
2023/04/30 12:42:02;;;;;;;8.32;2.45;;;16.00;92.80;;;;;;5055824;28;20223;-74
2023/04/30 12:44:28;;;;;;;4.78;2.45;;;16.10;93.20;;;;;;5079273;28;20259;-73
2023/04/30 12:46:56;;;;;;;8.23;2.30;;;16.10;92.60;;;;;;5072012;28;20585;-72
2023/04/30 12:49:44;;;;;;;5.55;2.08;;;16.00;92.90;;;;;;5056071;28;20222;-72
2023/04/30 12:52:11;;;;;;;7.15;2.65;;;15.90;92.70;;;;;;5058105;28;20728;-72
2023/04/30 12:54:38;;;;;;;5.18;2.55;;;15.60;93.60;;;;;;5062520;28;20704;-72